createdAt,value
2022-12-08T00:01:09.654Z,97.78
2022-12-08T00:03:36.904Z,97.66
2022-12-08T00:06:24.069Z,97.71
2022-12-08T00:09:09.916Z,97.28
2022-12-08T00:11:36.589Z,97.48
2022-12-08T00:14:03.369Z,97.54
2022-12-08T00:16:29.851Z,97.33
2022-12-08T00:18:56.408Z,96.93
2022-12-08T00:21:22.857Z,97.60
2022-12-08T00:23:49.254Z,97.43
2022-12-08T00:26:15.884Z,97.30
2022-12-08T00:28:42.371Z,97.58
2022-12-08T00:31:10.510Z,97.24
2022-12-08T00:33:37.342Z,97.51
2022-12-08T00:36:11.104Z,97.44
2022-12-08T00:38:38.816Z,97.41
2022-12-08T00:41:17.260Z,97.81
2022-12-08T00:43:44.099Z,97.42
2022-12-08T00:46:11.963Z,97.48
2022-12-08T00:48:39.203Z,97.17
2022-12-08T00:51:05.963Z,97.71
2022-12-08T00:53:32.447Z,97.63
2022-12-08T00:55:59.005Z,97.72
2022-12-08T00:58:25.420Z,97.47
2022-12-08T01:00:52.531Z,97.57
2022-12-08T01:03:19.185Z,97.71
2022-12-08T01:05:45.759Z,97.59
2022-12-08T01:08:12.471Z,97.57
2022-12-08T01:10:39.551Z,97.06
2022-12-08T01:13:06.168Z,97.85
2022-12-08T01:15:32.569Z,97.67
2022-12-08T01:17:59.194Z,97.55
2022-12-08T01:20:25.650Z,97.92
2022-12-08T01:22:52.151Z,97.41
2022-12-08T01:25:18.640Z,97.55
2022-12-08T01:27:45.127Z,97.62
2022-12-08T01:30:13.173Z,97.98
2022-12-08T01:32:40.175Z,97.78
2022-12-08T01:35:06.845Z,97.95
2022-12-08T01:37:33.303Z,98.05
2022-12-08T01:39:59.755Z,97.87
2022-12-08T01:42:26.361Z,97.74
2022-12-08T01:45:02.532Z,98.18
2022-12-08T01:47:37.849Z,97.91
2022-12-08T01:50:06.977Z,98.15
2022-12-08T01:52:36.707Z,97.60
2022-12-08T01:55:17.439Z,97.99
2022-12-08T01:57:48.572Z,97.88
2022-12-08T02:00:18.563Z,97.56
2022-12-08T02:02:48.046Z,98.09
2022-12-08T02:05:16.141Z,98.14
2022-12-08T02:07:43.806Z,98.01
2022-12-08T02:10:14.094Z,98.07
2022-12-08T02:12:40.799Z,97.66
2022-12-08T02:15:07.942Z,97.58
2022-12-08T02:18:03.426Z,97.62
2022-12-08T02:20:50.306Z,98.13
2022-12-08T02:23:27.319Z,97.83
2022-12-08T02:26:33.079Z,97.59
2022-12-08T02:29:21.388Z,97.74
2022-12-08T02:32:08.823Z,98.35
2022-12-08T02:34:45.549Z,98.31
2022-12-08T02:37:23.868Z,98.10
2022-12-08T02:40:11.679Z,97.78
2022-12-08T02:42:43.929Z,97.76
2022-12-08T02:45:17.602Z,97.97
2022-12-08T02:47:44.729Z,98.41
2022-12-08T02:50:12.079Z,98.13
2022-12-08T02:52:43.831Z,98.50
2022-12-08T02:55:31.061Z,98.03
2022-12-08T02:58:42.139Z,98.38
2022-12-08T03:01:20.507Z,98.25
2022-12-08T03:04:23.640Z,98.05
2022-12-08T03:07:04.066Z,98.21
2022-12-08T03:09:53.575Z,98.09
2022-12-08T03:12:30.310Z,98.44
2022-12-08T03:15:00.410Z,98.04
2022-12-08T03:17:30.941Z,98.17
2022-12-08T03:20:00.095Z,98.25
2022-12-08T03:22:27.703Z,98.43
2022-12-08T03:24:55.762Z,98.27
2022-12-08T03:27:27.916Z,98.74
2022-12-08T03:29:57.184Z,98.22
2022-12-08T03:32:26.405Z,98.33
2022-12-08T03:34:54.329Z,98.18
2022-12-08T03:37:21.546Z,98.35
2022-12-08T03:39:48.477Z,98.40
2022-12-08T03:42:14.921Z,98.77
2022-12-08T03:44:41.350Z,98.12
2022-12-08T03:47:08.204Z,98.63
2022-12-08T03:49:34.761Z,98.65
2022-12-08T03:52:01.182Z,98.38
2022-12-08T03:54:27.693Z,98.74
2022-12-08T03:56:54.130Z,98.33
2022-12-08T03:59:20.708Z,98.40
2022-12-08T04:01:47.264Z,98.51
2022-12-08T04:04:13.720Z,98.34
2022-12-08T04:06:40.301Z,98.58
2022-12-08T04:09:06.694Z,98.45
2022-12-08T04:11:33.335Z,98.68
2022-12-08T04:13:59.778Z,98.25
2022-12-08T04:16:27.934Z,98.67
2022-12-08T04:18:55.076Z,98.83
2022-12-08T04:21:21.951Z,98.34
2022-12-08T04:23:48.958Z,98.63
2022-12-08T04:26:15.611Z,98.71
2022-12-08T04:28:42.395Z,98.41
2022-12-08T04:31:09.272Z,98.53
2022-12-08T04:33:35.866Z,98.22
2022-12-08T04:36:04.648Z,98.79
2022-12-08T04:38:31.968Z,98.87
2022-12-08T04:40:58.470Z,98.33
2022-12-08T04:43:24.932Z,98.76
2022-12-08T04:45:51.405Z,98.29
2022-12-08T04:48:18.119Z,98.37
2022-12-08T04:50:45.608Z,98.70
2022-12-08T04:53:13.029Z,98.70
2022-12-08T04:55:41.229Z,98.67
2022-12-08T04:58:07.855Z,98.53
2022-12-08T05:00:34.289Z,98.38
2022-12-08T05:03:00.872Z,98.61
2022-12-08T05:05:27.364Z,98.50
2022-12-08T05:07:53.834Z,98.86
2022-12-08T05:10:20.369Z,98.57
2022-12-08T05:12:46.836Z,98.69
2022-12-08T05:15:13.407Z,98.62
2022-12-08T05:17:39.836Z,98.77
2022-12-08T05:20:07.089Z,98.58
2022-12-08T05:22:33.895Z,98.42
2022-12-08T05:25:00.404Z,98.66
2022-12-08T05:27:26.889Z,98.79
2022-12-08T05:29:53.575Z,99.05
2022-12-08T05:32:20.103Z,98.95
2022-12-08T05:34:46.557Z,98.81
2022-12-08T05:37:13.164Z,98.84
2022-12-08T05:39:39.675Z,98.56
2022-12-08T05:42:06.388Z,98.53
2022-12-08T05:44:32.918Z,98.47
2022-12-08T05:46:59.347Z,99.03
2022-12-08T05:49:26.151Z,98.79
2022-12-08T05:51:52.808Z,99.05
2022-12-08T05:54:19.308Z,98.53
2022-12-08T05:56:45.725Z,98.57
2022-12-08T05:59:12.210Z,99.01
2022-12-08T06:01:39.132Z,98.69
2022-12-08T06:04:05.662Z,98.62
2022-12-08T06:06:34.999Z,99.00
2022-12-08T06:09:05.393Z,98.56
2022-12-08T06:11:32.817Z,98.51
2022-12-08T06:14:00.049Z,98.78
2022-12-08T06:16:28.210Z,98.80
2022-12-08T06:18:55.788Z,98.62
2022-12-08T06:21:23.084Z,99.08
2022-12-08T06:23:51.684Z,99.05
2022-12-08T06:26:18.850Z,98.96
2022-12-08T06:28:45.527Z,99.06
2022-12-08T06:31:24.640Z,98.51
2022-12-08T06:33:52.406Z,98.86
2022-12-08T06:36:21.403Z,98.90
2022-12-08T06:38:48.105Z,98.60
2022-12-08T06:41:14.896Z,98.98
2022-12-08T06:43:41.658Z,98.58
2022-12-08T06:46:11.997Z,98.60
2022-12-08T06:48:38.676Z,99.19
2022-12-08T06:51:10.568Z,98.56
2022-12-08T06:53:40.517Z,98.81
2022-12-08T06:56:07.851Z,99.02
2022-12-08T06:58:34.615Z,98.49
2022-12-08T07:01:09.131Z,99.16
2022-12-08T07:03:37.158Z,99.25
2022-12-08T07:06:04.708Z,98.79
2022-12-08T07:08:32.691Z,98.99
2022-12-08T07:10:59.366Z,99.26
2022-12-08T07:13:25.775Z,98.71
2022-12-08T07:15:52.598Z,98.81
2022-12-08T07:18:19.092Z,99.06
2022-12-08T07:20:45.595Z,98.81
2022-12-08T07:23:12.072Z,98.61
2022-12-08T07:25:38.595Z,98.80
2022-12-08T07:28:10.000Z,99.10
2022-12-08T07:30:36.984Z,98.84
2022-12-08T07:33:05.589Z,99.49
2022-12-08T07:35:34.731Z,99.34
2022-12-08T07:38:01.924Z,99.04
2022-12-08T07:40:28.639Z,98.54
2022-12-08T07:42:55.192Z,98.68
2022-12-08T07:45:24.519Z,99.25
2022-12-08T07:47:54.925Z,98.84
2022-12-08T07:50:21.403Z,98.82
2022-12-08T07:52:48.763Z,99.01
2022-12-08T07:55:15.360Z,98.86
2022-12-08T07:57:41.876Z,99.46
2022-12-08T08:00:08.945Z,99.12
2022-12-08T08:02:38.499Z,98.68
2022-12-08T08:05:06.224Z,99.16
2022-12-08T08:07:32.945Z,98.73
2022-12-08T08:09:59.477Z,99.30
2022-12-08T08:12:33.543Z,99.10
2022-12-08T08:15:01.673Z,99.21
2022-12-08T08:17:29.484Z,98.59
2022-12-08T08:19:56.743Z,99.06
2022-12-08T08:22:24.170Z,98.89
2022-12-08T08:24:50.668Z,99.18
2022-12-08T08:27:17.233Z,99.00
2022-12-08T08:29:43.839Z,98.65
2022-12-08T08:32:10.496Z,98.94
2022-12-08T08:34:37.083Z,98.53
2022-12-08T08:37:04.862Z,98.62
2022-12-08T08:39:31.896Z,98.88
2022-12-08T08:41:58.637Z,99.11
2022-12-08T08:44:25.302Z,98.41
2022-12-08T08:46:51.909Z,98.70
2022-12-08T08:49:18.714Z,98.43
2022-12-08T08:51:45.414Z,98.74
2022-12-08T08:54:11.895Z,98.46
2022-12-08T08:56:38.370Z,98.63
2022-12-08T08:59:05.745Z,98.50
2022-12-08T09:01:32.549Z,98.53
2022-12-08T09:03:59.393Z,98.40
2022-12-08T09:06:28.004Z,98.76
2022-12-08T09:08:54.614Z,98.76
2022-12-08T09:11:23.419Z,98.71
2022-12-08T09:13:51.968Z,98.15
2022-12-08T09:16:19.531Z,98.61
2022-12-08T09:18:46.344Z,98.56
2022-12-08T09:21:20.101Z,98.55
2022-12-08T09:23:46.511Z,97.91
2022-12-08T09:26:12.916Z,98.04
2022-12-08T09:28:39.452Z,98.22
2022-12-08T09:31:06.222Z,98.08
2022-12-08T09:33:36.293Z,98.17
2022-12-08T09:36:03.994Z,97.92
2022-12-08T09:38:33.623Z,98.08
2022-12-08T09:41:03.710Z,98.06
2022-12-08T09:44:03.930Z,98.22
2022-12-08T09:46:33.919Z,98.01
2022-12-08T09:49:02.074Z,97.96
2022-12-08T09:51:34.650Z,97.72
2022-12-08T09:54:07.813Z,98.18
2022-12-08T09:56:37.015Z,97.80
2022-12-08T09:59:22.116Z,97.78
2022-12-08T10:01:52.368Z,97.83
2022-12-08T10:04:32.422Z,97.52
2022-12-08T10:07:26.599Z,97.88
2022-12-08T10:10:03.438Z,97.56
2022-12-08T10:12:33.284Z,97.68
2022-12-08T10:15:19.243Z,97.86
2022-12-08T10:17:48.590Z,97.75
2022-12-08T10:20:24.426Z,97.64
2022-12-08T10:22:58.564Z,97.90
2022-12-08T10:25:35.469Z,97.54
2022-12-08T10:28:08.735Z,97.52
2022-12-08T10:30:35.236Z,97.08
2022-12-08T10:33:01.952Z,97.43
2022-12-08T10:35:45.883Z,97.53
2022-12-08T10:38:30.636Z,97.61
2022-12-08T10:41:11.350Z,97.35
2022-12-08T10:46:38.077Z,97.12
2022-12-08T10:49:04.659Z,97.20
2022-12-08T10:51:34.139Z,97.41
2022-12-08T10:54:01.517Z,97.64
2022-12-08T10:56:30.680Z,97.31
2022-12-08T10:59:13.400Z,97.38
2022-12-08T11:01:41.506Z,97.35
2022-12-08T11:04:20.310Z,97.19
2022-12-08T11:06:48.940Z,97.62
2022-12-08T11:09:15.480Z,97.08
2022-12-08T11:11:50.162Z,97.62
2022-12-08T11:14:22.594Z,97.77
2022-12-08T11:16:55.982Z,97.64
2022-12-08T11:19:27.754Z,97.06
2022-12-08T11:21:54.468Z,97.42
2022-12-08T11:24:24.775Z,97.45
2022-12-08T11:27:04.704Z,97.14
2022-12-08T11:29:35.493Z,97.11
2022-12-08T11:32:04.438Z,97.58
2022-12-08T11:41:39.773Z,97.17
2022-12-08T11:59:50.896Z,97.03
2022-12-08T12:09:44.495Z,96.63
2022-12-08T12:12:39.909Z,96.42
2022-12-08T12:15:30.061Z,95.85
2022-12-08T12:21:34.351Z,95.84
2022-12-08T12:24:06.986Z,95.90
2022-12-08T12:27:22.191Z,95.62
2022-12-08T12:30:13.460Z,95.35
2022-12-08T12:36:18.133Z,95.14
2022-12-08T12:39:10.984Z,94.78
2022-12-08T12:42:06.507Z,95.46
2022-12-08T12:44:56.098Z,95.12
2022-12-08T12:47:56.253Z,95.30
2022-12-08T12:50:32.427Z,95.08
2022-12-08T12:53:17.315Z,95.03
2022-12-08T12:56:00.752Z,95.31
2022-12-08T12:58:27.954Z,94.90
2022-12-08T13:01:45.084Z,95.33
2022-12-08T13:05:06.252Z,95.14
2022-12-08T13:12:45.416Z,95.66
2022-12-08T13:23:35.046Z,95.47
2022-12-08T13:34:48.434Z,95.70
2022-12-08T13:42:16.714Z,95.54
2022-12-08T13:46:12.518Z,95.18
2022-12-08T13:57:01.272Z,95.72
2022-12-08T13:59:29.608Z,95.71
2022-12-08T14:02:55.393Z,95.57
2022-12-08T14:06:13.674Z,95.66
2022-12-08T14:09:23.439Z,95.73
2022-12-08T14:12:37.616Z,95.70
2022-12-08T14:19:07.570Z,95.64
2022-12-08T14:22:12.408Z,95.98
2022-12-08T14:24:38.380Z,95.55
2022-12-08T14:27:10.582Z,95.59
2022-12-08T14:29:52.695Z,95.82
2022-12-08T14:33:03.166Z,95.79
2022-12-08T14:36:17.962Z,95.84
2022-12-08T14:39:10.881Z,95.87
2022-12-08T14:42:13.977Z,96.13
2022-12-08T14:48:25.618Z,95.81
2022-12-08T14:50:58.025Z,96.17
2022-12-08T14:53:25.601Z,96.70
2022-12-08T14:55:52.362Z,96.75
2022-12-08T14:58:24.827Z,96.76
2022-12-08T15:00:56.742Z,96.61
2022-12-08T15:03:24.745Z,96.76
2022-12-08T15:05:56.955Z,96.54
2022-12-08T15:08:24.270Z,96.85
2022-12-08T15:11:13.711Z,96.98
2022-12-08T15:13:48.232Z,96.94
2022-12-08T15:16:29.204Z,97.25
2022-12-08T15:19:28.248Z,97.23
2022-12-08T15:21:57.492Z,97.49
2022-12-08T15:24:25.449Z,97.06
2022-12-08T15:26:52.840Z,97.46
2022-12-08T15:29:28.289Z,96.75
2022-12-08T15:32:00.694Z,97.44
2022-12-08T15:34:27.522Z,97.70
2022-12-08T15:36:55.067Z,97.29
2022-12-08T15:39:32.921Z,97.93
2022-12-08T15:42:00.372Z,97.94
2022-12-08T15:44:27.154Z,97.63
2022-12-08T15:46:53.944Z,97.65
2022-12-08T15:49:22.881Z,97.89
2022-12-08T15:51:50.157Z,97.94
2022-12-08T15:54:16.886Z,97.60
2022-12-08T15:57:17.959Z,97.55
2022-12-08T15:59:37.521Z,97.91
2022-12-08T16:02:04.207Z,97.94
2022-12-08T16:05:18.358Z,97.72
2022-12-08T16:07:33.562Z,97.61
2022-12-08T16:13:57.509Z,97.42
2022-12-08T16:16:29.511Z,97.88
2022-12-08T16:18:55.895Z,97.74
2022-12-08T16:21:53.410Z,97.59
2022-12-08T16:24:09.605Z,97.49
2022-12-08T16:27:35.485Z,97.79
2022-12-08T16:29:28.346Z,98.18
2022-12-08T16:31:55.039Z,98.26
2022-12-08T16:34:21.608Z,97.61
2022-12-08T16:36:52.541Z,97.77
2022-12-08T16:39:19.111Z,97.46
2022-12-08T16:42:04.159Z,97.27
2022-12-08T16:44:42.372Z,97.76
2022-12-08T16:47:09.423Z,98.06
2022-12-08T16:49:39.225Z,98.00
2022-12-08T16:52:08.592Z,98.27
2022-12-08T16:54:35.247Z,98.10
2022-12-08T16:57:01.772Z,97.95
2022-12-08T16:59:28.255Z,98.02
2022-12-08T17:01:54.770Z,98.13
2022-12-08T17:04:36.931Z,98.16
2022-12-08T17:07:03.545Z,98.33
2022-12-08T17:09:31.611Z,98.27
2022-12-08T17:12:03.514Z,98.59
2022-12-08T17:14:33.992Z,98.30
2022-12-08T17:17:00.919Z,98.59
2022-12-08T17:19:27.499Z,98.36
2022-12-08T17:21:53.990Z,97.89
2022-12-08T17:24:22.981Z,98.57
2022-12-08T17:26:49.485Z,98.10
2022-12-08T17:29:18.580Z,98.06
2022-12-08T17:31:45.518Z,97.99
2022-12-08T17:34:12.244Z,97.74
2022-12-08T17:36:38.746Z,98.52
2022-12-08T17:39:13.441Z,97.81
2022-12-08T17:41:44.673Z,98.17
2022-12-08T17:44:17.450Z,98.58
2022-12-08T17:46:49.109Z,97.98
2022-12-08T17:49:24.808Z,98.52
2022-12-08T17:51:54.844Z,98.46
2022-12-08T17:54:21.752Z,98.14
2022-12-08T17:56:48.453Z,98.46
2022-12-08T17:59:15.509Z,98.25
2022-12-08T18:01:44.532Z,98.36
2022-12-08T18:04:12.424Z,98.90
2022-12-08T18:06:43.393Z,98.52
2022-12-08T18:09:10.015Z,98.38
2022-12-08T18:11:36.863Z,98.58
2022-12-08T18:14:09.935Z,98.59
2022-12-08T18:16:47.204Z,98.94
2022-12-08T18:19:15.386Z,98.16
2022-12-08T18:21:42.390Z,98.47
2022-12-08T18:24:15.162Z,98.46
2022-12-08T18:26:41.707Z,98.81
2022-12-08T18:29:08.155Z,98.28
2022-12-08T18:31:34.604Z,98.43
2022-12-08T18:34:01.151Z,99.01
2022-12-08T18:36:27.630Z,98.63
2022-12-08T18:38:54.146Z,98.64
2022-12-08T18:41:26.526Z,98.52
2022-12-08T18:44:00.392Z,99.12
2022-12-08T18:46:39.125Z,98.52
2022-12-08T18:52:13.168Z,98.50
2022-12-08T18:55:09.111Z,98.17
2022-12-08T18:58:06.501Z,98.78
2022-12-08T19:00:31.385Z,98.12
2022-12-08T19:03:00.039Z,98.90
2022-12-08T19:05:26.836Z,98.59
2022-12-08T19:15:33.456Z,98.92
2022-12-08T19:28:43.125Z,99.34
2022-12-08T19:31:10.771Z,99.25
2022-12-08T19:38:35.464Z,99.43
2022-12-08T19:45:00.444Z,98.79
2022-12-08T19:48:09.889Z,99.05
2022-12-08T19:51:14.799Z,98.71
2022-12-08T19:53:47.286Z,98.69
2022-12-08T19:56:14.469Z,98.84
2022-12-08T19:58:41.210Z,98.95
2022-12-08T20:01:08.159Z,98.83
2022-12-08T20:03:40.373Z,98.13
2022-12-08T20:06:18.315Z,98.22
2022-12-08T20:09:09.288Z,98.88
2022-12-08T20:15:29.629Z,98.65
2022-12-08T20:21:41.569Z,98.72
2022-12-08T20:24:17.615Z,98.97
2022-12-08T20:30:02.935Z,98.53
2022-12-08T20:32:33.395Z,98.82
2022-12-08T20:35:56.119Z,97.89
2022-12-08T20:41:26.626Z,98.15
2022-12-08T20:44:05.514Z,98.11
2022-12-08T20:46:34.692Z,97.84
2022-12-08T20:49:04.226Z,97.95
2022-12-08T20:51:32.821Z,97.85
2022-12-08T20:54:02.143Z,98.29
2022-12-08T20:56:36.453Z,97.66
2022-12-08T20:59:03.287Z,97.73
2022-12-08T21:01:32.467Z,98.25
2022-12-08T21:04:28.107Z,98.00
2022-12-08T21:07:01.623Z,97.90
2022-12-08T21:09:31.705Z,97.81
2022-12-08T21:11:58.575Z,98.07
2022-12-08T21:17:43.693Z,98.11
2022-12-08T21:21:10.999Z,98.34
2022-12-08T21:30:13.896Z,98.30
2022-12-08T21:32:39.304Z,98.21
2022-12-08T21:42:00.237Z,98.23
2022-12-08T21:44:56.349Z,97.67
2022-12-08T21:47:52.236Z,98.33
2022-12-08T21:50:20.025Z,97.82
2022-12-08T21:56:11.443Z,98.14
2022-12-08T21:59:01.798Z,97.70
2022-12-08T22:03:30.182Z,97.85
2022-12-08T22:06:45.685Z,98.48
2022-12-08T22:15:33.134Z,98.19
2022-12-08T22:18:31.305Z,98.31
2022-12-08T22:25:30.977Z,98.07
2022-12-08T22:28:22.339Z,98.50
2022-12-08T22:31:07.430Z,98.42
2022-12-08T22:33:40.597Z,97.92
2022-12-08T22:37:04.200Z,97.69
2022-12-08T22:40:40.773Z,97.71
2022-12-08T22:44:07.145Z,97.85
2022-12-08T22:47:25.663Z,98.40
2022-12-08T23:00:20.627Z,97.75
2022-12-08T23:09:21.380Z,98.58
2022-12-08T23:14:56.177Z,98.43
2022-12-08T23:17:27.056Z,97.60
2022-12-08T23:20:15.526Z,98.05
2022-12-08T23:22:53.615Z,98.04
2022-12-08T23:38:38.926Z,98.31
2022-12-08T23:48:14.122Z,98.16
2022-12-08T23:54:12.872Z,98.20
2022-12-08T23:57:04.480Z,98.32
2022-12-08T23:59:42.168Z,98.13
